Data for 09/28/2016

Time Sea-Level Adjusted Pressure Absolute Pressure Temperature Relative Humidity Dew Point   
(mb) (inHg) (mb) (inHg) (C) (F) (%) (C) (F)
00:05 1023 30.21 852 25.16 14.4 57.9 42 1.6 34.8
00:10 1023 30.21 852 25.16 14.3 57.7 41 1.4 34.5
00:15 1023 30.21 852 25.16 14.3 57.8 42 1.7 35.1
00:20 1023 30.21 852 25.16 14.1 57.4 42 1.6 35
00:25 1023 30.21 852 25.16 14.1 57.4 42 1.3 34.4
00:30 1023 30.21 852 25.16 14.2 57.5 42 1.5 34.7
00:35 1023 30.21 852 25.16 14.3 57.7 41 1.3 34.3
00:40 1023 30.21 853 25.19 14.5 58 40 1.3 34.3
00:45 1023 30.21 853 25.19 14.6 58.3 39 1 33.9
00:50 1023 30.21 853 25.19 14.8 58.6 39 1.1 34
00:55 1023 30.21 853 25.19 14.9 58.9 39 1.1 33.9
01:00 1024 30.24 853 25.19 15 58.9 39 1 33.9
01:05 1024 30.24 853 25.19 14.9 58.8 39 1.2 34.1
01:10 1024 30.24 853 25.19 14.7 58.4 40 1.3 34.3
01:15 1024 30.24 853 25.19 14.5 58.2 40 1.3 34.3
01:20 1024 30.24 853 25.19 14.5 58 41 1.3 34.4
01:25 1024 30.24 853 25.19 14.4 58 41 1.3 34.3
01:30 1024 30.24 853 25.19 14.4 57.9 41 1.4 34.6
01:35 1024 30.24 853 25.19 14.4 58 41 1.6 34.8
01:40 1024 30.24 853 25.19 14.4 57.9 42 1.6 34.9
01:45 1024 30.24 853 25.19 14.3 57.7 43 1.9 35.4
01:50 1024 30.24 853 25.19 14.7 58.4 43 2.2 35.9
01:55 1024 30.24 853 25.19 14.1 57.4 44 2 35.6
02:00 1024 30.24 853 25.19 13.6 56.6 45 2 35.7
02:05 1024 30.24 853 25.19 13.3 56 46 2 35.7
02:10 1024 30.24 853 25.19 13 55.3 47 2 35.5
02:15 1024 30.24 853 25.19 12.8 55 47 2 35.6
02:20 1024 30.24 853 25.19 12.4 54.4 50 2.5 36.5
02:25 1024 30.24 853 25.19 12.1 53.7 52 2.6 36.8
02:30 1024 30.24 854 25.22 11.8 53.2 52 2.3 36.1
02:35 1024 30.24 854 25.22 11.6 52.9 52 2.1 35.7
02:40 1024 30.24 854 25.22 11.8 53.2 52 2.2 35.9
02:45 1024 30.24 854 25.22 11.5 52.8 53 2.3 36.2
02:50 1024 30.24 854 25.22 11.3 52.4 54 2.5 36.5
02:55 1024 30.24 854 25.22 11 51.8 56 2.5 36.5
03:00 1024 30.24 854 25.22 10.7 51.3 57 2.5 36.4
03:05 1024 30.24 854 25.22 10.6 51 57 2.3 36.2
03:10 1024 30.24 854 25.22 10.4 50.6 58 2.6 36.6
03:15 1024 30.24 854 25.22 9.9 49.8 60 2.6 36.7
03:20 1024 30.24 854 25.22 9.6 49.2 60 2.3 36.1
03:25 1025 30.27 854 25.22 9.6 49.3 61 2.5 36.5
03:30 1025 30.27 854 25.22 9.5 49.1 61 2.4 36.4
03:35 1025 30.27 854 25.22 9.6 49.3 61 2.4 36.3
03:40 1025 30.27 854 25.22 9.8 49.6 60 2.5 36.5
03:45 1025 30.27 854 25.22 9.8 49.7 60 2.6 36.6
03:50 1025 30.27 854 25.22 9.6 49.2 62 2.6 36.7
03:55 1025 30.27 854 25.22 9.5 49 62 2.5 36.5
04:00 1025 30.27 854 25.22 9.8 49.6 60 2.3 36.2
04:05 1025 30.27 854 25.22 9.9 49.7 60 2.6 36.7
04:10 1025 30.27 854 25.22 9.7 49.4 61 2.6 36.6
04:15 1025 30.27 854 25.22 9.1 48.4 64 2.7 36.8
04:20 1025 30.27 854 25.22 8.6 47.5 66 2.6 36.8
04:25 1025 30.27 854 25.22 8.4 47.2 66 2.4 36.4
04:30 1025 30.27 854 25.22 8.6 47.4 64 2.2 35.9
04:35 1025 30.27 854 25.22 9 48.3 63 2.5 36.5
04:40 1025 30.27 854 25.22 9.2 48.5 63 2.5 36.5
04:45 1025 30.27 854 25.22 9 48.1 64 2.5 36.6
04:50 1025 30.27 854 25.22 8.9 48 63 2.3 36.2
04:55 1025 30.27 854 25.22 9.3 48.7 62 2.3 36.1
05:00 1025 30.27 854 25.22 9.4 48.9 62 2.5 36.6
05:05 1025 30.27 854 25.22 9.2 48.5 64 2.6 36.7
05:10 1025 30.27 854 25.22 9 48.3 63 2.4 36.3
05:15 1025 30.27 854 25.22 9.1 48.3 63 2.4 36.4
05:20 1025 30.27 854 25.22 8.9 48.1 63 2.3 36.1
05:25 1025 30.27 854 25.22 8.9 48 65 2.6 36.7
05:30 1025 30.27 854 25.22 8.7 47.6 63 2 35.5
05:35 1025 30.27 854 25.22 8.9 47.9 64 2.5 36.4
05:40 1025 30.27 854 25.22 8.7 47.7 63 2.1 35.8
05:45 1025 30.27 854 25.22 8.6 47.4 66 2.6 36.7
05:50 1025 30.27 854 25.22 8.2 46.8 65 2.1 35.8
05:55 1025 30.27 854 25.22 8.8 47.8 62 2 35.6
06:00 1025 30.27 854 25.22 8.8 47.9 63 2.2 36
06:05 1025 30.27 854 25.22 9.2 48.5 61 2.1 35.7
06:10 1025 30.27 854 25.22 9.1 48.4 64 2.7 36.9
06:15 1025 30.27 854 25.22 8.3 46.9 66 2.4 36.2
06:20 1025 30.27 854 25.22 8.6 47.4 64 2.1 35.7
06:25 1025 30.27 854 25.22 8.7 47.6 64 2.3 36.1
06:30 1025 30.27 854 25.22 8.5 47.2 66 2.4 36.3
06:35 1025 30.27 854 25.22 8.3 46.9 65 2.1 35.8
06:40 1025 30.27 854 25.22 9 48.3 63 2.3 36.2
06:45 1025 30.27 854 25.22 9.2 48.6 61 2.2 36
06:50 1025 30.27 854 25.22 9.4 49 61 2.4 36.3
06:55 1025 30.27 854 25.22 9.2 48.6 62 2.4 36.2
07:00 1025 30.27 854 25.22 8.7 47.7 64 2.3 36.1
07:05 1025 30.27 854 25.22 8.8 47.8 64 2.4 36.3
07:10 1025 30.27 854 25.22 9.1 48.5 63 2.4 36.3
07:15 1025 30.27 854 25.22 9.7 49.4 62 2.9 37.1
07:20 1025 30.27 854 25.22 9.5 49.1 64 3.1 37.7
07:25 1025 30.27 855 25.25 9.9 49.7 61 2.7 36.9
07:30 1025 30.27 855 25.25 10.5 51 60 3.3 37.9
07:35 1025 30.27 855 25.25 10.7 51.2 61 3.5 38.3
07:40 1025 30.27 855 25.25 10.8 51.4 61 3.7 38.6
07:45 1025 30.27 855 25.25 11.1 51.9 62 4 39.3
07:50 1025 30.27 855 25.25 11.6 52.8 60 4.2 39.6
07:55 1025 30.27 855 25.25 12 53.6 60 4.6 40.2
08:00 1025 30.27 855 25.25 12.2 53.9 59 4.5 40.2
08:05 1025 30.27 855 25.25 12.2 53.9 60 4.7 40.4
08:10 1026 30.3 855 25.25 12.2 53.9 60 4.7 40.4
08:15 1026 30.3 855 25.25 12.2 53.9 60 4.8 40.6
08:20 1025 30.27 855 25.25 12.1 53.8 61 4.8 40.6
08:25 1025 30.27 855 25.25 12.2 53.9 61 4.9 40.8
08:30 1026 30.3 855 25.25 12.2 53.9 61 5 40.9
08:35 1026 30.3 855 25.25 12.2 54 61 5.1 41.2
08:40 1026 30.3 855 25.25 12.4 54.3 61 5.1 41.1
08:45 1026 30.3 855 25.25 12.4 54.3 61 5.1 41.1
08:50 1026 30.3 855 25.25 12.5 54.5 61 5.1 41.2
08:55 1026 30.3 855 25.25 12.5 54.6 61 5.2 41.3
09:00 1026 30.3 855 25.25 12.5 54.6 61 5.3 41.5
09:05 1026 30.3 855 25.25 12.7 54.8 60 5.2 41.4
09:10 1026 30.3 855 25.25 12.8 55 60 5.3 41.5
09:15 1026 30.3 855 25.25 12.9 55.2 60 5.4 41.7
09:20 1026 30.3 855 25.25 13.1 55.6 59 5.4 41.8
09:25 1026 30.3 855 25.25 13.2 55.8 59 5.5 41.8
09:30 1026 30.3 855 25.25 13.5 56.2 58 5.5 41.9
09:35 1026 30.3 855 25.25 13.7 56.6 58 5.6 42
09:40 1026 30.3 855 25.25 13.7 56.6 58 5.6 42.1
09:45 1026 30.3 855 25.25 13.9 56.9 57 5.5 41.9
09:50 1026 30.3 855 25.25 14.1 57.4 56 5.5 42
09:55 1026 30.3 855 25.25 14.3 57.7 56 5.5 42
10:00 1026 30.3 855 25.25 14.3 57.8 55 5.5 41.9
10:05 1026 30.3 855 25.25 14.4 58 54 5.4 41.8
10:10 1026 30.3 855 25.25 14.6 58.3 54 5.5 41.9
10:15 1026 30.3 855 25.25 14.8 58.6 54 5.5 42
10:20 1026 30.3 855 25.25 14.8 58.7 52 5.2 41.3
10:25 1026 30.3 855 25.25 15 59 52 5.3 41.5
10:30 1026 30.3 855 25.25 15 59 52 5.4 41.8
10:35 1026 30.3 855 25.25 15 59.1 52 5.4 41.7
10:40 1026 30.3 855 25.25 15.2 59.3 52 5.5 41.9
10:45 1026 30.3 855 25.25 15 59.1 54 6 42.8
10:50 1025 30.27 855 25.25 14.9 58.8 55 6 42.8
10:55 1026 30.3 855 25.25 15 58.9 53 5.7 42.2
11:00 1026 30.3 855 25.25 15.3 59.5 54 6.1 43
11:05 1025 30.27 855 25.25 14.2 57.6 58 6 42.8
11:10 1025 30.27 855 25.25 14.3 57.8 57 6 42.9
11:15 1025 30.27 855 25.25 14.4 57.8 55 5.5 42
11:20 1025 30.27 855 25.25 15.1 59.2 55 6.3 43.3
11:25 1025 30.27 854 25.22 15 58.9 55 6 42.8
11:30 1025 30.27 854 25.22 14.7 58.4 57 6.2 43.2
11:35 1025 30.27 854 25.22 14.3 57.7 55 5.5 41.9
11:40 1025 30.27 854 25.22 15.9 60.6 50 5.7 42.2
11:45 1025 30.27 854 25.22 16.8 62.2 48 5.8 42.4
11:50 1025 30.27 854 25.22 16.4 61.5 50 5.9 42.7
11:55 1025 30.27 854 25.22 17 62.5 46 5.4 41.8
12:00 1025 30.27 854 25.22 17.1 62.8 47 5.8 42.5
12:05 1025 30.27 854 25.22 17.1 62.7 48 6 42.8
12:10 1025 30.27 854 25.22 17.2 62.9 47 5.8 42.4
12:15 1025 30.27 854 25.22 17.4 63.3 47 6.1 42.9
12:20 1025 30.27 854 25.22 17.8 64.1 46 6.1 43
12:25 1025 30.27 854 25.22 17.5 63.5 46 5.8 42.5
12:30 1025 30.27 854 25.22 16.9 62.4 50 6.5 43.7
12:35 1025 30.27 854 25.22 17 62.5 46 5.5 41.9
12:40 1025 30.27 854 25.22 17.9 64.3 45 5.8 42.5
12:45 1025 30.27 854 25.22 18.3 65 44 5.8 42.5
12:50 1025 30.27 854 25.22 18.4 65.2 44 6 42.8
12:55 1025 30.27 854 25.22 18.3 64.9 45 6.3 43.3
13:00 1024 30.24 854 25.22 17.9 64.3 46 6.4 43.5
13:05 1025 30.27 854 25.22 18 64.4 46 6.3 43.3
13:10 1024 30.24 854 25.22 17.7 63.9 44 5.5 41.9
13:15 1024 30.24 854 25.22 18.2 64.8 44 5.8 42.4
13:20 1024 30.24 854 25.22 18.7 65.7 43 6.2 43.1
13:25 1024 30.24 853 25.19 19 66.3 44 6.7 44
13:30 1024 30.24 853 25.19 18.9 66 44 6.5 43.6
13:35 1024 30.24 853 25.19 18.9 66 44 6.4 43.6
13:40 1024 30.24 853 25.19 19.4 66.9 42 6.2 43.2
13:45 1024 30.24 853 25.19 19.6 67.3 42 6.4 43.4
13:50 1024 30.24 853 25.19 19.6 67.3 43 6.9 44.4
13:55 1024 30.24 853 25.19 20 67.9 41 6.6 43.8
14:00 1024 30.24 853 25.19 19.9 67.8 43 7 44.6
14:05 1024 30.24 853 25.19 19.4 66.9 42 6.3 43.3
14:10 1024 30.24 853 25.19 19.9 67.8 42 6.7 44.1
14:15 1024 30.24 853 25.19 19.8 67.7 44 7.4 45.3
14:20 1024 30.24 853 25.19 20 68 40 6.3 43.3
14:25 1024 30.24 853 25.19 19.4 66.9 44 6.9 44.4
14:30 1024 30.24 853 25.19 20 68.1 40 6 42.8
14:35 1024 30.24 853 25.19 20.7 69.2 41 7.3 45.1
14:40 1024 30.24 853 25.19 20 68 41 6.4 43.5
14:45 1023 30.21 853 25.19 20.6 69.1 40 6.6 43.9
14:50 1023 30.21 853 25.19 19.6 67.3 44 7.2 44.9
14:55 1023 30.21 853 25.19 19.7 67.5 43 6.9 44.4
15:00 1023 30.21 852 25.16 20.3 68.5 40 6.3 43.3
15:05 1023 30.21 852 25.16 20.1 68.3 42 6.9 44.3
15:10 1023 30.21 852 25.16 19.8 67.6 43 6.9 44.4
15:15 1023 30.21 852 25.16 20.2 68.3 40 6.4 43.6
15:20 1023 30.21 852 25.16 20.4 68.7 40 6.6 43.9
15:25 1023 30.21 852 25.16 20.7 69.2 40 6.7 44.1
15:30 1023 30.21 852 25.16 21.2 70.1 37 6.2 43.2
15:35 1023 30.21 852 25.16 22 71.6 37 6.7 44.1
15:40 1023 30.21 852 25.16 21.8 71.2 38 7.1 44.7
15:45 1023 30.21 852 25.16 22.2 71.9 35 6.2 43.2
15:50 1023 30.21 852 25.16 22.2 72 36 6.7 44
15:55 1023 30.21 852 25.16 21.8 71.3 37 6.6 44
16:00 1023 30.21 852 25.16 22.1 71.9 36 6.6 43.9
16:05 1023 30.21 852 25.16 22.1 71.7 34 5.6 42.2
16:10 1023 30.21 852 25.16 21.8 71.2 35 5.7 42.2
16:15 1023 30.21 852 25.16 21.4 70.4 35 5.6 42
16:20 1023 30.21 852 25.16 21.5 70.6 34 5.2 41.4
16:25 1023 30.21 852 25.16 21.7 71.1 35 5.7 42.3
16:30 1022 30.18 852 25.16 22 71.6 34 5.5 41.9
16:35 1022 30.18 852 25.16 21.9 71.4 35 6 42.8
16:40 1022 30.18 852 25.16 21.9 71.4 36 6.2 43.1
16:45 1022 30.18 852 25.16 21.5 70.6 36 6.1 43
16:50 1022 30.18 852 25.16 21.2 70.2 37 6.1 43
16:55 1022 30.18 852 25.16 21.3 70.3 37 6.2 43.2
17:00 1022 30.18 852 25.16 21.2 70.2 37 6.2 43.2
17:05 1022 30.18 852 25.16 20.9 69.7 38 6.2 43.1
17:10 1022 30.18 852 25.16 21.1 70 38 6.4 43.5
17:15 1022 30.18 852 25.16 20.9 69.6 39 6.6 43.8
17:20 1022 30.18 852 25.16 20.9 69.6 39 6.5 43.7
17:25 1022 30.18 852 25.16 20.7 69.3 40 6.8 44.3
17:30 1022 30.18 852 25.16 20.5 69 41 6.9 44.4
17:35 1022 30.18 852 25.16 20.3 68.5 41 6.9 44.5
17:40 1022 30.18 852 25.16 20.2 68.3 42 6.9 44.4
17:45 1022 30.18 852 25.16 20 67.9 42 7 44.5
17:50 1022 30.18 852 25.16 19.8 67.6 43 7 44.6
17:55 1022 30.18 852 25.16 19.6 67.3 43 7 44.5
18:00 1022 30.18 852 25.16 19.4 67 44 7 44.5
18:05 1022 30.18 852 25.16 19.4 66.9 44 7 44.6
18:10 1022 30.18 852 25.16 19.3 66.8 44 7 44.7
18:15 1022 30.18 852 25.16 19.1 66.4 45 7.1 44.8
18:20 1022 30.18 852 25.16 19 66.1 45 7.1 44.7
18:25 1022 30.18 852 25.16 18.8 65.8 46 7 44.7
18:30 1022 30.18 852 25.16 18.6 65.4 47 7.1 44.7
18:35 1022 30.18 852 25.16 18.3 65 48 7.2 44.9
18:40 1022 30.18 852 25.16 18.1 64.6 48 7.1 44.8
18:45 1022 30.18 852 25.16 18 64.3 49 7.2 44.9
18:50 1022 30.18 852 25.16 17.7 63.9 50 7.3 45.1
18:55 1022 30.18 852 25.16 17.6 63.6 51 7.3 45.2
19:00 1022 30.18 852 25.16 17.4 63.4 51 7.4 45.3
19:05 1022 30.18 852 25.16 17.3 63.1 52 7.5 45.5
19:10 1022 30.18 852 25.16 17.1 62.8 53 7.5 45.5
19:15 1023 30.21 852 25.16 17 62.5 53 7.6 45.6
19:20 1023 30.21 852 25.16 16.8 62.3 54 7.6 45.7
19:25 1023 30.21 852 25.16 16.7 62.1 55 7.6 45.7
19:30 1023 30.21 852 25.16 16.7 62 55 7.6 45.7
19:35 1023 30.21 852 25.16 16.6 61.8 55 7.5 45.6
19:40 1023 30.21 852 25.16 16.5 61.7 55 7.5 45.5
19:45 1023 30.21 852 25.16 16.5 61.7 55 7.5 45.5
19:50 1023 30.21 852 25.16 16.5 61.7 54 7.3 45.2
19:55 1023 30.21 852 25.16 16.5 61.7 54 7.4 45.3
20:00 1023 30.21 852 25.16 16.4 61.5 55 7.4 45.2
20:05 1023 30.21 852 25.16 16.3 61.4 55 7.4 45.3
20:10 1023 30.21 852 25.16 16.3 61.3 55 7.4 45.3
20:15 1023 30.21 852 25.16 16.2 61.2 55 7.4 45.3
20:20 1023 30.21 852 25.16 16.2 61.2 55 7.4 45.3
20:25 1023 30.21 852 25.16 16.2 61.2 56 7.5 45.6
20:30 1023 30.21 852 25.16 16.2 61.1 56 7.5 45.5
20:35 1023 30.21 852 25.16 16.1 61 56 7.5 45.4
20:40 1023 30.21 852 25.16 16.1 61 56 7.5 45.4
20:45 1023 30.21 852 25.16 16.1 60.9 57 7.5 45.5
20:50 1023 30.21 852 25.16 16 60.8 56 7.4 45.4
20:55 1023 30.21 852 25.16 16 60.7 57 7.5 45.4
21:00 1023 30.21 852 25.16 16 60.8 57 7.5 45.6
21:05 1023 30.21 852 25.16 15.9 60.6 57 7.6 45.6
21:10 1023 30.21 852 25.16 15.9 60.7 57 7.5 45.5
21:15 1023 30.21 852 25.16 15.9 60.6 57 7.5 45.4
21:20 1023 30.21 852 25.16 15.9 60.6 57 7.5 45.5
21:25 1023 30.21 852 25.16 15.8 60.5 57 7.4 45.3
21:30 1023 30.21 852 25.16 15.8 60.5 57 7.4 45.4
21:35 1023 30.21 852 25.16 15.8 60.5 57 7.3 45.2
21:40 1023 30.21 852 25.16 15.9 60.6 56 7.3 45.1
21:45 1023 30.21 852 25.16 15.9 60.7 56 7.4 45.2
21:50 1023 30.21 852 25.16 15.9 60.6 56 7.4 45.2
21:55 1023 30.21 852 25.16 15.9 60.6 57 7.4 45.3
22:00 1023 30.21 852 25.16 15.9 60.6 57 7.4 45.4
22:05 1023 30.21 852 25.16 15.9 60.5 57 7.5 45.5
22:10 1023 30.21 852 25.16 15.8 60.5 57 7.5 45.5
22:15 1023 30.21 852 25.16 15.8 60.5 57 7.5 45.5
22:20 1023 30.21 852 25.16 15.9 60.5 57 7.5 45.5
22:25 1023 30.21 852 25.16 15.9 60.6 57 7.5 45.5
22:30 1023 30.21 852 25.16 15.8 60.5 58 7.6 45.6
22:35 1023 30.21 852 25.16 15.7 60.3 58 7.5 45.5
22:40 1023 30.21 852 25.16 15.7 60.3 58 7.5 45.5
22:45 1023 30.21 852 25.16 15.7 60.2 58 7.6 45.6
22:50 1023 30.21 852 25.16 15.7 60.2 58 7.6 45.6
22:55 1023 30.21 852 25.16 15.7 60.2 58 7.5 45.5
23:00 1023 30.21 852 25.16 15.7 60.2 59 7.6 45.7
23:05 1023 30.21 852 25.16 15.6 60.1 59 7.6 45.8
23:10 1023 30.21 852 25.16 15.6 60 59 7.7 45.8
23:15 1023 30.21 852 25.16 15.5 59.9 59 7.7 45.9
23:20 1023 30.21 852 25.16 15.4 59.8 60 7.7 45.8
23:25 1023 30.21 852 25.16 15.3 59.6 60 7.7 45.9
23:30 1023 30.21 852 25.16 15.3 59.5 60 7.7 45.9
23:35 1023 30.21 852 25.16 15.3 59.5 60 7.6 45.7
23:40 1023 30.21 852 25.16 15.3 59.6 60 7.7 45.9
23:45 1023 30.21 852 25.16 15.3 59.5 60 7.7 45.9
23:50 1023 30.21 852 25.16 15.2 59.4 61 7.7 45.9
23:55 1023 30.21 852 25.16 15.2 59.4 60 7.6 45.6
24:00 1023 30.21 852 25.16 15.3 59.5 60 7.7 45.8